Nearby METAR Reports

 

KPMP - Pompano Beach, Florida, USA
Distance from station: NNW 3mi, 5km
Updated: 08/11/2020 7:53pm
Partly cloudy
Partly cloudy
 Wind from ESE
Wind: ESE 8 mph , 13 km/h
Barometer: 30.00 inHg , 1015.9 hPa
Clouds: Partly cloudy
Visibility: 10 miles , 16 km
Cloud details: Few Clouds 2000 ft
Partly cloudy 5000 ft
Partly cloudy 18000 ft
2020/08/11 23:53 KPMP 112353Z 12007KT 10SM FEW020 SCT050 SCT180 A3000 RMK AO2 SLP161 53010 $
KFXE - Ft Lauderd/Exec, Florida, USA
Distance from station: W 6mi, 9km
Updated: 08/11/2020 7:53pm
Few Clouds
Few Clouds
 Wind from E
Wind: E 10 mph , 17 km/h
Temperature: 84°F , 29°C
Heat Index: 94°F , 34°C
Dew Point: 77°F , 25°C
Humidity: 79%
Barometer: 29.99 inHg , 1015.6 hPa
Clouds: Few Clouds
Visibility: 10 miles , 16 km
Cloud details: Few Clouds 2500 ft
2020/08/11 23:53 KFXE 112353Z AUTO 10009KT 10SM FEW025 29/25 A2999 RMK AO2 SLP159 T02940250 10322 20294 53008 TSNO
 
KFLL - Ft Lauderd/Holly, Florida, USA
Distance from station: SSW 11mi, 17km
Updated: 08/11/2020 7:53pm
Partly cloudy
Partly cloudy
 Wind from ESE
Wind: ESE 8 mph , 13 km/h
Temperature: 86°F , 30°C
Heat Index: 95°F , 35°C
Dew Point: 75°F , 24°C
Humidity: 70%
Barometer: 29.99 inHg , 1015.6 hPa
Clouds: Partly cloudy
Visibility: 10 miles , 16 km
Cloud details: Few Clouds 2500 ft
Few Clouds 9000 ft
Few Clouds 15000 ft
Partly cloudy 25000 ft
2020/08/11 23:53 KFLL 112353Z 12007KT 10SM FEW025 FEW090 FEW150 SCT250 30/24 A2999 RMK AO2 SLP155 T03000244 10333 20300 53008
KBCT - Boca Raton, Florida, USA
Distance from station: N 12mi, 19km
Updated: 08/11/2020 7:47pm
Few Clouds
Few Clouds
 Wind from ESE
Wind: ESE 6 mph , 9 km/h
Temperature: 84°F , 29°C
Heat Index: 92°F , 33°C
Dew Point: 75°F , 24°C
Humidity: 74%
Barometer: 30.00 inHg , 1015.9 hPa
Clouds: Few Clouds
Visibility: 10 miles , 16 km
Cloud details: Few Clouds 2500 ft
2020/08/11 23:47 KBCT 112347Z 12005KT 10SM FEW025 29/24 A3000
 
KHWO - Hollywood, Florida, USA
Distance from station: SSW 17mi, 27km
Updated: 08/11/2020 7:53pm
Clear
Clear
 Wind from E
Wind: E 7 mph , 11 km/h
Temperature: 86°F , 30°C
Heat Index: 95°F , 35°C
Dew Point: 75°F , 24°C
Humidity: 70%
Barometer: 30.01 inHg , 1016.3 hPa
Clouds: Clear
Visibility: 10 miles , 16 km
2020/08/11 23:53 KHWO 112353Z 08006KT 10SM CLR 30/24 A3001 RMK AO2 SLP161 T03000244 10339 20300 53009
KOPF - Miami/Opa Locka, Florida, USA
Distance from station: SSW 24mi, 38km
Updated: 08/11/2020 7:53pm
Clear
Clear
 Wind from ESE
Wind: ESE 8 mph , 13 km/h
Temperature: 84°F , 29°C
Heat Index: 90°F , 32°C
Dew Point: 73°F , 23°C
Humidity: 70%
Barometer: 30.00 inHg , 1015.9 hPa
Clouds: Clear
Visibility: 10 miles , 16 km
2020/08/11 23:53 KOPF 112353Z 12007KT 10SM CLR 29/23 A3000 RMK AO2 SLP159 T02890228 10333 20289 53008
 
KMIA - Miami, Florida, USA
Distance from station: SSW 31mi, 50km
Updated: 08/11/2020 7:53pm
Partly cloudy
Partly cloudy
 Wind from E
Wind: E 10 mph , 17 km/h
Temperature: 86°F , 30°C
Heat Index: 93°F , 34°C
Dew Point: 73°F , 23°C
Humidity: 66%
Barometer: 29.99 inHg , 1015.6 hPa
Clouds: Partly cloudy
Visibility: 10 miles , 16 km
Cloud details: Few Clouds 2800 ft
Few Clouds 15000 ft
Partly cloudy 25000 ft
2020/08/11 23:53 KMIA 112353Z 10009KT 10SM FEW028 FEW150 SCT250 30/23 A2999 RMK AO2 SLP156 T03000233 10339 20300 53007
KPBI - West Palm Beach, Florida, USA
Distance from station: N 33mi, 52km
Updated: 08/11/2020 7:53pm
Mostly cloudy
Mostly cloudy
 Wind from ESE
Wind: ESE 5 mph , 7 km/h
Temperature: 84°F , 29°C
Heat Index: 92°F , 33°C
Dew Point: 75°F , 24°C
Humidity: 74%
Barometer: 30.01 inHg , 1016.3 hPa
Clouds: Mostly cloudy
Visibility: 10 miles , 16 km
Cloud details: Partly cloudy 2500 ft
Mostly cloudy 19000 ft
Mostly cloudy 25000 ft
2020/08/11 23:53 KPBI 112353Z 11004KT 10SM SCT025 BKN190 BKN250 29/24 A3001 RMK AO2 SLP161 CB DSNT NW T02940239 10322 20294 53010
 
KTMB - Miami/Tamiami, Florida, USA
Distance from station: SSW 44mi, 71km
Updated: 08/11/2020 7:53pm
Clear
Clear
 Wind from ESE
Wind: ESE 7 mph , 11 km/h
Temperature: 86°F , 30°C
Heat Index: 95°F , 35°C
Dew Point: 75°F , 24°C
Humidity: 70%
Barometer: 29.99 inHg , 1015.6 hPa
Clouds: Clear
Visibility: 10 miles , 16 km
2020/08/11 23:53 KTMB 112353Z 11006KT 10SM CLR 30/24 A2999 RMK AO2 SLP154 T03000239 10350 20294 53007